AirNav   Air Wisconsin pilot careers
 
 1039 users online  

Y73 Stambaugh Airport
Iron River, Michigan, USA

GOING TO IRON RIVER?


FAA INFORMATION EFFECTIVE 04 JANUARY 2018

Location

FAA Identifier: Y73
Lat/Long: 46-04-43.5500N / 088-38-07.7700W
46-04.725833N / 088-38.129500W
46.0787639 / -88.6354917
(estimated)
Elevation: 1622 ft. / 494 m (estimated)
Variation: 02W (1985)
From city: 1 mile SSE of IRON RIVER, MI
Time zone: UTC -6 (UTC -5 during Daylight Saving Time)
Zip code: 49935

Airport Operations

Airport use: Open to the public
Control tower: no
ARTCC: MINNEAPOLIS CENTER
FSS: GREEN BAY FLIGHT SERVICE STATION
NOTAMs facility: GRB (NOTAM-D service available)
Attendance: UNATNDD
Wind indicator: lighted
Segmented circle: yes
Lights: ACTVT LIRL RY 17/35 - 121.9.

Airport Communications

CTAF: 122.9

Nearby radio navigation aids

VOR radial/distance  VOR name  Freq  Var
IMTr308/26.9IRON MOUNTAIN VOR/DME111.2002W

 
NDB name  Hdg/Dist  Freq  Var  ID
WATERSMEET117/29.540702WRXW .-. -..- .--

Airport Services

Parking: tiedowns
Airframe service: NONE
Bottled oxygen: NONE
Bulk oxygen: NONE

Runway Information

Runway 17/35

Dimensions: 2000 x 40 ft. / 610 x 12 m
Surface: asphalt, in poor condition
NUMEROUS CRACKS IN RY.
NUMEROUS CRACKS & VEGETATION IN RY
Runway edge lights: non-standard
NSTD LIRL 26 FT FROM RY EDGE.
Runway edge markings: RWY MARKINGS ARE FADED
RUNWAY 17  RUNWAY 35
Latitude: 46-04.658667N46-04.334833N
Longitude: 088-37.801833W088-37.717667W
Elevation: 1622.0 ft.1622.0 ft.
Traffic pattern: leftleft
Markings: NSTD, in poor conditionNSTD, in poor condition
Runway end identifier lights: nono
Obstructions: 26 ft. trees, 805 ft. from runway, 130 ft. left of centerline, 23:1 slope to clearnone

Airport Ownership and Management from official FAA records

Ownership: Publicly-owned
Owner: IRON COUNTY
COURTHOUSE 2 S 67TH STREET, SUITE 7
CRYSTAL FALLS, MI 49920
Phone 906-875-3301
Manager: KRIST ATANASOFF
303 SELDEN RD, 303 SELDEN ROAD
IRON RIVER, MI 49935
Phone 906-265-6144
AMGR RES 906-265-9087.

Airport Operational Statistics

Aircraft based on the field: 6
Single engine airplanes: 6
    
Aircraft operations: avg 44/week *
87% transient general aviation
13% local general aviation
* for 12-month period ending 31 December 2014

Additional Remarks

DEER ON & INVOF ARPT.
100 FT DROP OFF AT EACH RY END.
RY 17/35 SLOPES DOWN FM S TO N.

Instrument Procedures

There are no published instrument procedures at Y73.

Some nearby airports with instrument procedures:

KLNL - Kings Land O' Lakes Airport (24 nm W)
KIMT - Ford Airport (27 nm SE)
KEGV - Eagle River Union Airport (28 nm W)
Y55 - Crandon/Steve Conway Municipal Airport (36 nm S)
KRHI - Rhinelander-Oneida County Airport (44 nm SW)
 
Loc | Ops | Rwys | IFR | FBO | Links
Com | Nav | Svcs | Stats | Notes


 
Area around Y73 (Stambaugh Airport)
 
Road maps at: MapQuest Bing Google
 
Aerial photo
WARNING: Photo may not be current or correct
Aerial photo of Y73 (Stambaugh Airport)
Taken in 2008

Do you have a better or more recent aerial photo of Stambaugh Airport that you would like to share? If so, please send us your photo.

 
Sectional chart

 
Airport distance calculator
Flying to Stambaugh Airport? Find the distance to fly.

From to Y73

Sunrise and sunset
Times for 20-Jan-2018
 Local
(UTC-6)
 Zulu
(UTC)
Morning civil twilight06:5712:57
Sunrise07:3013:30
Sunset16:4122:41
Evening civil twilight17:1423:14

Current date and time
Zulu (UTC)  20-Jan-2018 19:35:03
Local (UTC-6)  20-Jan-2018 13:35:03
 
METAR
KLNL 
24nm W 
201915Z AUTO 28003KT 10SM BKN075 OVC090 03/M01 A2983 RMK AO2 P0002 T00311009
KIMT 
27nm SE 
201854Z AUTO 20005KT 10SM BKN090 OVC120 03/M01 A2983 RMK AO2 SLP113 T00281011
KEGV 
28nm W 
201915Z AUTO 23006KT 10SM CLR 01/M01 A2983 RMK AO2 T00101010
KRHI 
44nm SW 
201853Z AUTO 26007KT 10SM OVC090 02/M01 A2985 RMK AO2 SLP127 T00171006
KARV 
46nm W 
201915Z AUTO 24004KT 10SM OVC100 03/00 A2983 RMK AO2 T00250000
TAF
KRHI 
44nm SW 
201720Z 2018/2118 27002KT P6SM BKN110 FM210500 00000KT 5SM BR OVC090 TEMPO 2109/2113 2SM BR SCT004 BKN070 FM211300 07004KT 4SM BR BKN004
NOTAMs
Click for the latest NOTAMs
NOTAMs are issued by the DoD/FAA and will open in a separate window not controlled by AirNav.

 

 
 

Would you like to see your business listed on this page?

 If your business provides an interesting product or service to pilots, flight crews, aircraft, or users of the Stambaugh Airport, you should consider listing it here.  To start the listing process, click on the button below
 
Add a business
 

Other Pages about Stambaugh Airport

Page from the Michigan Airport Directory (PDF)
 
Update a link
 
Copyright © AirNav, LLC. All rights reserved. Privacy Policy  Contact